sensor_id;sensor_type;location;lat;lon;timestamp;pressure;altitude;pressure_sealevel;temperature;humidity
19736;BME280;32064;49.310;8.646;2023-02-26T00:01:00;100221.84;;;3.70;56.24
19736;BME280;32064;49.310;8.646;2023-02-26T00:03:26;100219.19;;;3.72;55.76
19736;BME280;32064;49.310;8.646;2023-02-26T00:05:52;100216.78;;;3.67;55.50
19736;BME280;32064;49.310;8.646;2023-02-26T00:08:17;100213.28;;;3.68;55.91
19736;BME280;32064;49.310;8.646;2023-02-26T00:10:42;100212.38;;;3.69;55.97
19736;BME280;32064;49.310;8.646;2023-02-26T00:13:09;100206.25;;;3.70;56.73
19736;BME280;32064;49.310;8.646;2023-02-26T00:15:36;100219.19;;;3.72;56.86
19736;BME280;32064;49.310;8.646;2023-02-26T00:18:05;100215.44;;;3.58;56.22
19736;BME280;32064;49.310;8.646;2023-02-26T00:20:31;100222.25;;;3.61;56.92
19736;BME280;32064;49.310;8.646;2023-02-26T00:22:57;100213.63;;;3.60;56.18
19736;BME280;32064;49.310;8.646;2023-02-26T00:25:23;100214.41;;;3.63;56.71
19736;BME280;32064;49.310;8.646;2023-02-26T00:27:48;100220.88;;;3.54;56.67
19736;BME280;32064;49.310;8.646;2023-02-26T00:30:14;100220.97;;;3.51;55.84
19736;BME280;32064;49.310;8.646;2023-02-26T00:32:40;100224.75;;;3.44;57.22
19736;BME280;32064;49.310;8.646;2023-02-26T00:35:08;100223.66;;;3.49;56.13
19736;BME280;32064;49.310;8.646;2023-02-26T00:40:50;100235.88;;;3.47;56.19
19736;BME280;32064;49.310;8.646;2023-02-26T00:43:23;100229.25;;;3.40;56.96
19736;BME280;32064;49.310;8.646;2023-02-26T00:51:16;100239.31;;;3.27;56.54
19736;BME280;32064;49.310;8.646;2023-02-26T00:53:47;100239.31;;;3.27;57.07
19736;BME280;32064;49.310;8.646;2023-02-26T00:56:15;100244.47;;;3.29;56.67
19736;BME280;32064;49.310;8.646;2023-02-26T00:58:41;100246.34;;;3.25;57.54
19736;BME280;32064;49.310;8.646;2023-02-26T01:01:07;100239.41;;;3.26;57.58
19736;BME280;32064;49.310;8.646;2023-02-26T01:03:32;100237.53;;;3.29;56.92
19736;BME280;32064;49.310;8.646;2023-02-26T01:05:58;100241.94;;;3.27;57.17
19736;BME280;32064;49.310;8.646;2023-02-26T01:08:31;100241.41;;;3.19;57.98
19736;BME280;32064;49.310;8.646;2023-02-26T01:10:58;100237.84;;;3.22;56.57
19736;BME280;32064;49.310;8.646;2023-02-26T01:13:24;100234.41;;;3.21;57.67
19736;BME280;32064;49.310;8.646;2023-02-26T01:15:55;100236.28;;;3.18;57.13
19736;BME280;32064;49.310;8.646;2023-02-26T01:18:27;100237.13;;;3.18;57.56
19736;BME280;32064;49.310;8.646;2023-02-26T01:21:02;100236.28;;;3.18;57.43
19736;BME280;32064;49.310;8.646;2023-02-26T01:23:31;100226.88;;;3.15;57.05
19736;BME280;32064;49.310;8.646;2023-02-26T01:26:03;100237.19;;;3.17;57.62
19736;BME280;32064;49.310;8.646;2023-02-26T01:28:30;100231.84;;;3.20;58.26
19736;BME280;32064;49.310;8.646;2023-02-26T01:30:59;100234.44;;;3.20;57.86
19736;BME280;32064;49.310;8.646;2023-02-26T01:33:34;100232.91;;;3.15;57.25
19736;BME280;32064;49.310;8.646;2023-02-26T01:36:14;100235.06;;;3.06;58.16
19736;BME280;32064;49.310;8.646;2023-02-26T01:38:55;100238.00;;;2.97;58.42
19736;BME280;32064;49.310;8.646;2023-02-26T01:44:11;100232.16;;;2.91;58.03
19736;BME280;32064;49.310;8.646;2023-02-26T01:49:39;100234.84;;;2.90;58.24
19736;BME280;32064;49.310;8.646;2023-02-26T01:53:17;100229.63;;;2.90;57.91
19736;BME280;32064;49.310;8.646;2023-02-26T01:54:51;100236.50;;;2.91;58.53
19736;BME280;32064;49.310;8.646;2023-02-26T01:57:18;100236.47;;;2.92;58.35
19736;BME280;32064;49.310;8.646;2023-02-26T01:59:47;100241.25;;;2.81;58.21
19736;BME280;32064;49.310;8.646;2023-02-26T02:02:17;100235.94;;;2.84;58.53
19736;BME280;32064;49.310;8.646;2023-02-26T02:04:44;100239.38;;;2.85;58.12
19736;BME280;32064;49.310;8.646;2023-02-26T02:07:10;100240.22;;;2.85;58.33
19736;BME280;32064;49.310;8.646;2023-02-26T02:09:35;100237.47;;;2.88;58.64
19736;BME280;32064;49.310;8.646;2023-02-26T02:17:44;100241.03;;;2.86;57.75
19736;BME280;32064;49.310;8.646;2023-02-26T02:23:12;100240.47;;;2.79;58.17
19736;BME280;32064;49.310;8.646;2023-02-26T02:31:32;100246.88;;;2.70;58.52
19736;BME280;32064;49.310;8.646;2023-02-26T02:39:41;100271.09;;;2.71;58.69
19736;BME280;32064;49.310;8.646;2023-02-26T02:42:38;100260.91;;;2.66;58.41
19736;BME280;32064;49.310;8.646;2023-02-26T02:45:10;100266.97;;;2.65;58.90
19736;BME280;32064;49.310;8.646;2023-02-26T02:47:43;100267.81;;;2.66;58.71
19736;BME280;32064;49.310;8.646;2023-02-26T02:53:17;100269.09;;;2.56;59.08
19736;BME280;32064;49.310;8.646;2023-02-26T02:55:49;100263.78;;;2.59;58.88
19736;BME280;32064;49.310;8.646;2023-02-26T02:58:21;100254.53;;;2.52;58.82
19736;BME280;32064;49.310;8.646;2023-02-26T03:00:49;100271.19;;;2.46;59.23
19736;BME280;32064;49.310;8.646;2023-02-26T03:05:47;100268.59;;;2.46;59.20
19736;BME280;32064;49.310;8.646;2023-02-26T03:08:15;100276.34;;;2.47;59.13
19736;BME280;32064;49.310;8.646;2023-02-26T03:10:42;100281.47;;;2.49;58.83
19736;BME280;32064;49.310;8.646;2023-02-26T03:13:17;100286.59;;;2.51;59.49
19736;BME280;32064;49.310;8.646;2023-02-26T03:16:06;100282.25;;;2.51;59.48
19736;BME280;32064;49.310;8.646;2023-02-26T03:18:47;100285.66;;;2.53;59.18
19736;BME280;32064;49.310;8.646;2023-02-26T03:29:50;100294.91;;;2.37;59.29
19736;BME280;32064;49.310;8.646;2023-02-26T03:32:24;100306.25;;;2.34;59.77
19736;BME280;32064;49.310;8.646;2023-02-26T03:34:59;100296.72;;;2.35;59.12
19736;BME280;32064;49.310;8.646;2023-02-26T03:37:33;100303.75;;;2.33;59.38
19736;BME280;32064;49.310;8.646;2023-02-26T03:40:04;100308.19;;;2.29;59.43
19736;BME280;32064;49.310;8.646;2023-02-26T03:42:39;100307.66;;;2.21;60.35
19736;BME280;32064;49.310;8.646;2023-02-26T03:45:12;100310.31;;;2.18;60.00
19736;BME280;32064;49.310;8.646;2023-02-26T03:47:40;100311.00;;;2.23;59.72
19736;BME280;32064;49.310;8.646;2023-02-26T03:50:16;100313.78;;;2.18;59.74
19736;BME280;32064;49.310;8.646;2023-02-26T03:52:44;100315.47;;;2.19;59.84
19736;BME280;32064;49.310;8.646;2023-02-26T03:55:17;100313.78;;;2.18;59.74
19736;BME280;32064;49.310;8.646;2023-02-26T03:57:44;100323.31;;;2.18;59.90
19736;BME280;32064;49.310;8.646;2023-02-26T04:00:11;100317.63;;;2.08;60.22
19736;BME280;32064;49.310;8.646;2023-02-26T04:02:43;100322.13;;;2.03;59.85
19736;BME280;32064;49.310;8.646;2023-02-26T04:05:15;100322.81;;;2.08;60.55
19736;BME280;32064;49.310;8.646;2023-02-26T04:07:41;100335.53;;;2.14;60.67
19736;BME280;32064;49.310;8.646;2023-02-26T04:10:10;100341.53;;;2.16;60.19
19736;BME280;32064;49.310;8.646;2023-02-26T04:12:39;100340.25;;;2.05;60.48
19736;BME280;32064;49.310;8.646;2023-02-26T04:15:05;100341.00;;;2.07;60.84
19736;BME280;32064;49.310;8.646;2023-02-26T04:17:31;100340.81;;;2.13;60.29
19736;BME280;32064;49.310;8.646;2023-02-26T04:19:56;100349.25;;;2.18;60.12
19736;BME280;32064;49.310;8.646;2023-02-26T04:22:22;100345.69;;;2.20;60.01
19736;BME280;32064;49.310;8.646;2023-02-26T04:24:47;100351.75;;;2.21;59.83
19736;BME280;32064;49.310;8.646;2023-02-26T04:27:13;100339.91;;;2.14;60.40
19736;BME280;32064;49.310;8.646;2023-02-26T04:29:38;100347.00;;;2.09;60.41
19736;BME280;32064;49.310;8.646;2023-02-26T04:32:03;100352.03;;;2.13;60.91
19736;BME280;32064;49.310;8.646;2023-02-26T04:34:29;100352.72;;;2.18;60.00
19736;BME280;32064;49.310;8.646;2023-02-26T04:36:54;100346.66;;;2.18;60.40
19736;BME280;32064;49.310;8.646;2023-02-26T04:39:20;100354.66;;;2.12;60.29
19736;BME280;32064;49.310;8.646;2023-02-26T04:41:45;100359.09;;;2.10;60.49
19736;BME280;32064;49.310;8.646;2023-02-26T04:44:11;100358.50;;;2.01;60.63
19736;BME280;32064;49.310;8.646;2023-02-26T04:46:36;100359.34;;;2.02;60.94
19736;BME280;32064;49.310;8.646;2023-02-26T04:49:02;100369.63;;;2.05;60.65
19736;BME280;32064;49.310;8.646;2023-02-26T04:51:27;100369.88;;;1.97;60.45
19736;BME280;32064;49.310;8.646;2023-02-26T04:53:53;100376.94;;;1.94;61.06
19736;BME280;32064;49.310;8.646;2023-02-26T04:56:18;100370.91;;;1.93;61.32
19736;BME280;32064;49.310;8.646;2023-02-26T04:58:44;100372.44;;;1.99;60.71
19736;BME280;32064;49.310;8.646;2023-02-26T05:01:09;100374.00;;;2.03;61.00
19736;BME280;32064;49.310;8.646;2023-02-26T05:03:35;100376.47;;;2.06;60.80
19736;BME280;32064;49.310;8.646;2023-02-26T05:06:00;100377.28;;;2.08;60.75
19736;BME280;32064;49.310;8.646;2023-02-26T05:08:26;100371.28;;;2.06;60.28
19736;BME280;32064;49.310;8.646;2023-02-26T05:10:51;100385.28;;;2.02;60.95
19736;BME280;32064;49.310;8.646;2023-02-26T05:13:19;100381.84;;;2.01;60.81
19736;BME280;32064;49.310;8.646;2023-02-26T05:15:45;100375.75;;;2.02;61.06
19736;BME280;32064;49.310;8.646;2023-02-26T05:18:11;100384.75;;;1.92;61.21
19736;BME280;32064;49.310;8.646;2023-02-26T05:20:37;100384.75;;;1.92;61.78
19736;BME280;32064;49.310;8.646;2023-02-26T05:23:03;100392.63;;;1.89;61.47
19736;BME280;32064;49.310;8.646;2023-02-26T05:25:28;100383.06;;;1.91;61.49
19736;BME280;32064;49.310;8.646;2023-02-26T05:27:54;100395.13;;;1.92;61.75
19736;BME280;32064;49.310;8.646;2023-02-26T05:30:20;100397.63;;;1.95;61.70
19736;BME280;32064;49.310;8.646;2023-02-26T05:32:45;100390.00;;;1.91;61.54
19736;BME280;32064;49.310;8.646;2023-02-26T05:35:11;100391.78;;;1.89;61.61
19736;BME280;32064;49.310;8.646;2023-02-26T05:37:37;100394.25;;;1.93;61.90
19736;BME280;32064;49.310;8.646;2023-02-26T05:40:05;100404.53;;;1.95;61.84
19736;BME280;32064;49.310;8.646;2023-02-26T05:42:30;100407.31;;;1.90;61.65
19736;BME280;32064;49.310;8.646;2023-02-26T05:44:56;100415.00;;;1.93;61.48
19736;BME280;32064;49.310;8.646;2023-02-26T05:47:22;100414.16;;;1.93;61.39
19736;BME280;32064;49.310;8.646;2023-02-26T05:49:48;100412.72;;;1.84;61.52
19736;BME280;32064;49.310;8.646;2023-02-26T05:52:13;100422.91;;;1.89;61.45
19736;BME280;32064;49.310;8.646;2023-02-26T05:54:39;100416.78;;;1.91;61.56
19736;BME280;32064;49.310;8.646;2023-02-26T05:57:04;100426.22;;;1.94;61.57
19736;BME280;32064;49.310;8.646;2023-02-26T05:59:29;100433.94;;;1.95;61.81
19736;BME280;32064;49.310;8.646;2023-02-26T06:01:55;100427.03;;;1.94;61.82
19736;BME280;32064;49.310;8.646;2023-02-26T06:04:20;100430.44;;;1.96;61.74
19736;BME280;32064;49.310;8.646;2023-02-26T06:06:46;100423.56;;;1.95;61.79
19736;BME280;32064;49.310;8.646;2023-02-26T06:09:11;100434.63;;;2.00;61.53
19736;BME280;32064;49.310;8.646;2023-02-26T06:11:36;100449.34;;;2.00;62.00
19736;BME280;32064;49.310;8.646;2023-02-26T06:14:03;100449.34;;;2.00;61.74
19736;BME280;32064;49.310;8.646;2023-02-26T06:16:29;100457.06;;;2.01;61.47
19736;BME280;32064;49.310;8.646;2023-02-26T06:18:54;100454.50;;;2.01;61.54
19736;BME280;32064;49.310;8.646;2023-02-26T06:21:19;100464.03;;;2.01;62.39
19736;BME280;32064;49.310;8.646;2023-02-26T06:23:45;100450.97;;;2.02;61.58
19736;BME280;32064;49.310;8.646;2023-02-26T06:26:10;100464.75;;;2.05;61.64
19736;BME280;32064;49.310;8.646;2023-02-26T06:28:36;100461.31;;;2.04;61.84
19736;BME280;32064;49.310;8.646;2023-02-26T06:31:01;100470.69;;;2.08;61.52
19736;BME280;32064;49.310;8.646;2023-02-26T06:33:27;100471.31;;;2.15;61.99
19736;BME280;32064;49.310;8.646;2023-02-26T06:35:52;100477.19;;;2.20;61.73
19736;BME280;32064;49.310;8.646;2023-02-26T06:38:18;100483.06;;;2.25;61.43
19736;BME280;32064;49.310;8.646;2023-02-26T06:40:46;100494.09;;;2.32;61.49
19736;BME280;32064;49.310;8.646;2023-02-26T06:43:12;100504.00;;;2.45;61.57
19736;BME280;32064;49.310;8.646;2023-02-26T06:45:37;100512.38;;;2.54;61.65
19736;BME280;32064;49.310;8.646;2023-02-26T06:48:03;100512.94;;;2.62;61.34
19736;BME280;32064;49.310;8.646;2023-02-26T06:50:29;100513.53;;;2.70;60.87
19736;BME280;32064;49.310;8.646;2023-02-26T06:52:55;100525.16;;;2.83;61.09
19736;BME280;32064;49.310;8.646;2023-02-26T06:55:21;100527.03;;;3.03;61.18
19736;BME280;32064;49.310;8.646;2023-02-26T06:57:54;100539.78;;;4.62;58.63
19736;BME280;32064;49.310;8.646;2023-02-26T07:00:20;100530.44;;;6.25;55.58
19736;BME280;32064;49.310;8.646;2023-02-26T07:02:45;100539.81;;;8.08;50.68
19736;BME280;32064;49.310;8.646;2023-02-26T07:05:11;100530.28;;;9.52;47.57
19736;BME280;32064;49.310;8.646;2023-02-26T07:07:36;100530.53;;;9.88;47.03
19736;BME280;32064;49.310;8.646;2023-02-26T07:10:02;100541.72;;;7.74;51.39
19736;BME280;32064;49.310;8.646;2023-02-26T07:12:27;100538.72;;;10.24;46.90
19736;BME280;32064;49.310;8.646;2023-02-26T07:14:53;100550.13;;;11.39;45.30
19736;BME280;32064;49.310;8.646;2023-02-26T07:17:18;100551.53;;;12.28;42.99
19736;BME280;32064;49.310;8.646;2023-02-26T07:19:48;100554.25;;;13.42;40.88
19736;BME280;32064;49.310;8.646;2023-02-26T07:22:14;100553.97;;;13.12;41.05
19736;BME280;32064;49.310;8.646;2023-02-26T07:24:41;100551.59;;;11.31;43.50
19736;BME280;32064;49.310;8.646;2023-02-26T07:27:07;100549.38;;;9.95;46.38
19736;BME280;32064;49.310;8.646;2023-02-26T07:29:33;100563.69;;;8.78;48.19
19736;BME280;32064;49.310;8.646;2023-02-26T07:31:58;100568.31;;;7.98;49.24
19736;BME280;32064;49.310;8.646;2023-02-26T07:34:23;100557.69;;;7.38;50.73
19736;BME280;32064;49.310;8.646;2023-02-26T07:36:49;100560.53;;;7.17;50.38
19736;BME280;32064;49.310;8.646;2023-02-26T07:39:14;100570.25;;;6.82;51.53
19736;BME280;32064;49.310;8.646;2023-02-26T07:41:40;100567.78;;;6.62;51.34
19736;BME280;32064;49.310;8.646;2023-02-26T07:44:05;100572.34;;;6.41;51.43
19736;BME280;32064;49.310;8.646;2023-02-26T07:46:31;100570.19;;;6.32;51.98
19736;BME280;32064;49.310;8.646;2023-02-26T07:48:56;100580.31;;;6.20;53.36
19736;BME280;32064;49.310;8.646;2023-02-26T07:51:22;100573.16;;;6.06;52.38
19736;BME280;32064;49.310;8.646;2023-02-26T07:53:47;100581.69;;;5.91;53.91
19736;BME280;32064;49.310;8.646;2023-02-26T07:56:13;100579.97;;;5.73;53.71
19736;BME280;32064;49.310;8.646;2023-02-26T07:58:38;100582.78;;;5.68;54.42
19736;BME280;32064;49.310;8.646;2023-02-26T08:01:03;100583.22;;;5.59;54.64
19736;BME280;32064;49.310;8.646;2023-02-26T08:03:29;100590.75;;;5.46;55.23
19736;BME280;32064;49.310;8.646;2023-02-26T08:05:56;100594.47;;;5.40;55.22
19736;BME280;32064;49.310;8.646;2023-02-26T08:08:25;100584.78;;;5.44;53.85
19736;BME280;32064;49.310;8.646;2023-02-26T08:10:50;100600.94;;;5.52;53.33
19736;BME280;32064;49.310;8.646;2023-02-26T08:13:15;100595.56;;;5.55;53.37
19736;BME280;32064;49.310;8.646;2023-02-26T08:15:41;100602.31;;;5.78;53.84
19736;BME280;32064;49.310;8.646;2023-02-26T08:18:08;100604.94;;;5.78;53.23
19736;BME280;32064;49.310;8.646;2023-02-26T08:20:34;100599.31;;;6.59;52.97
19736;BME280;32064;49.310;8.646;2023-02-26T08:23:00;100600.53;;;9.19;48.64
19736;BME280;32064;49.310;8.646;2023-02-26T08:25:25;100596.75;;;10.21;46.73
19736;BME280;32064;49.310;8.646;2023-02-26T08:27:51;100606.69;;;10.95;45.33
19736;BME280;32064;49.310;8.646;2023-02-26T08:30:17;100614.50;;;13.03;42.91
19736;BME280;32064;49.310;8.646;2023-02-26T08:32:42;100613.53;;;14.59;39.53
19736;BME280;32064;49.310;8.646;2023-02-26T08:35:10;100607.63;;;14.23;40.10
19736;BME280;32064;49.310;8.646;2023-02-26T08:37:37;100618.38;;;12.29;43.27
19736;BME280;32064;49.310;8.646;2023-02-26T08:40:04;100621.69;;;11.08;44.46
19736;BME280;32064;49.310;8.646;2023-02-26T08:42:30;100620.13;;;10.52;45.15
19736;BME280;32064;49.310;8.646;2023-02-26T08:44:55;100621.59;;;9.75;45.62
19736;BME280;32064;49.310;8.646;2023-02-26T08:47:21;100628.66;;;11.71;42.96
19736;BME280;32064;49.310;8.646;2023-02-26T08:49:46;100628.00;;;11.93;41.39
19736;BME280;32064;49.310;8.646;2023-02-26T08:52:12;100621.91;;;12.87;40.80
19736;BME280;32064;49.310;8.646;2023-02-26T08:54:37;100637.13;;;11.63;43.81
19736;BME280;32064;49.310;8.646;2023-02-26T08:57:03;100634.00;;;11.07;43.30
19736;BME280;32064;49.310;8.646;2023-02-26T08:59:28;100627.00;;;10.81;43.57
19736;BME280;32064;49.310;8.646;2023-02-26T09:01:53;100633.47;;;9.95;44.61
19736;BME280;32064;49.310;8.646;2023-02-26T09:04:19;100634.13;;;9.84;45.07
19736;BME280;32064;49.310;8.646;2023-02-26T09:06:44;100637.63;;;9.71;45.61
19736;BME280;32064;49.310;8.646;2023-02-26T09:09:10;100635.91;;;9.57;45.08
19736;BME280;32064;49.310;8.646;2023-02-26T09:11:35;100642.34;;;9.65;44.49
19736;BME280;32064;49.310;8.646;2023-02-26T09:14:01;100648.53;;;9.64;46.13
19736;BME280;32064;49.310;8.646;2023-02-26T09:16:28;100646.75;;;9.65;44.79
19736;BME280;32064;49.310;8.646;2023-02-26T09:18:54;100656.19;;;9.82;43.92
19736;BME280;32064;49.310;8.646;2023-02-26T09:21:19;100648.13;;;9.85;43.79
19736;BME280;32064;49.310;8.646;2023-02-26T09:23:45;100661.28;;;9.71;44.75
19736;BME280;32064;49.310;8.646;2023-02-26T09:26:10;100660.63;;;9.53;44.49
19736;BME280;32064;49.310;8.646;2023-02-26T09:28:36;100660.19;;;9.60;45.34
19736;BME280;32064;49.310;8.646;2023-02-26T09:31:04;100663.81;;;9.72;44.75
19736;BME280;32064;49.310;8.646;2023-02-26T09:33:31;100663.03;;;9.84;44.90
19736;BME280;32064;49.310;8.646;2023-02-26T09:35:57;100661.75;;;11.88;41.19
19736;BME280;32064;49.310;8.646;2023-02-26T09:38:22;100666.44;;;12.56;40.96
19736;BME280;32064;49.310;8.646;2023-02-26T09:41:00;100652.00;;;14.95;37.20
19736;BME280;32064;49.310;8.646;2023-02-26T09:44:38;100662.00;;;16.14;34.53
19736;BME280;32064;49.310;8.646;2023-02-26T09:46:52;100672.28;;;15.06;35.77
19736;BME280;32064;49.310;8.646;2023-02-26T09:49:27;100669.22;;;14.25;35.92
19736;BME280;32064;49.310;8.646;2023-02-26T09:52:11;100683.44;;;12.76;38.75
19736;BME280;32064;49.310;8.646;2023-02-26T09:54:45;100676.56;;;12.39;39.51
19736;BME280;32064;49.310;8.646;2023-02-26T09:57:19;100691.19;;;12.19;39.27
19736;BME280;32064;49.310;8.646;2023-02-26T09:59:46;100682.03;;;13.41;38.15
19736;BME280;32064;49.310;8.646;2023-02-26T10:04:51;100679.75;;;14.80;35.83
19736;BME280;32064;49.310;8.646;2023-02-26T10:07:33;100684.56;;;13.32;36.18
19736;BME280;32064;49.310;8.646;2023-02-26T10:10:31;100685.69;;;11.98;38.22
19736;BME280;32064;49.310;8.646;2023-02-26T10:12:58;100682.16;;;12.58;38.72
19736;BME280;32064;49.310;8.646;2023-02-26T10:15:39;100686.97;;;12.88;37.02
19736;BME280;32064;49.310;8.646;2023-02-26T10:21:08;100703.94;;;11.24;38.67
19736;BME280;32064;49.310;8.646;2023-02-26T10:23:43;100701.44;;;10.43;40.12
19736;BME280;32064;49.310;8.646;2023-02-26T10:34:29;100716.81;;;9.50;42.68
19736;BME280;32064;49.310;8.646;2023-02-26T10:39:58;100712.72;;;9.60;41.90
19736;BME280;32064;49.310;8.646;2023-02-26T10:42:38;100713.72;;;9.72;41.83
19736;BME280;32064;49.310;8.646;2023-02-26T10:48:07;100730.91;;;9.92;41.89
19736;BME280;32064;49.310;8.646;2023-02-26T10:50:38;100736.53;;;9.57;41.78
19736;BME280;32064;49.310;8.646;2023-02-26T10:53:09;100740.25;;;9.39;42.35
19736;BME280;32064;49.310;8.646;2023-02-26T10:55:46;100731.09;;;9.02;43.27
19736;BME280;32064;49.310;8.646;2023-02-26T10:58:17;100737.78;;;8.91;43.24
19736;BME280;32064;49.310;8.646;2023-02-26T11:00:46;100739.81;;;8.72;43.68
19736;BME280;32064;49.310;8.646;2023-02-26T11:03:20;100740.81;;;8.69;43.66
19736;BME280;32064;49.310;8.646;2023-02-26T11:05:47;100732.97;;;8.53;44.39
19736;BME280;32064;49.310;8.646;2023-02-26T11:08:42;100754.69;;;8.40;44.12
19736;BME280;32064;49.310;8.646;2023-02-26T11:11:08;100756.25;;;8.26;44.88
19736;BME280;32064;49.310;8.646;2023-02-26T11:13:37;100753.72;;;7.93;44.71
19736;BME280;32064;49.310;8.646;2023-02-26T11:16:16;100741.56;;;7.75;45.17
19736;BME280;32064;49.310;8.646;2023-02-26T11:18:52;100744.97;;;7.77;44.79
19736;BME280;32064;49.310;8.646;2023-02-26T11:21:23;100755.06;;;7.67;45.11
19736;BME280;32064;49.310;8.646;2023-02-26T11:23:58;100753.63;;;7.61;45.12
19736;BME280;32064;49.310;8.646;2023-02-26T11:26:26;100751.75;;;7.63;45.54
19736;BME280;32064;49.310;8.646;2023-02-26T11:28:57;100750.94;;;7.63;44.58
19736;BME280;32064;49.310;8.646;2023-02-26T11:31:24;100751.22;;;7.74;45.34
19736;BME280;32064;49.310;8.646;2023-02-26T11:33:53;100745.91;;;7.76;44.54
19736;BME280;32064;49.310;8.646;2023-02-26T11:36:24;100746.81;;;7.75;44.47
19736;BME280;32064;49.310;8.646;2023-02-26T11:39:00;100743.69;;;7.68;44.54
19736;BME280;32064;49.310;8.646;2023-02-26T11:41:27;100743.88;;;7.81;45.07
19736;BME280;32064;49.310;8.646;2023-02-26T11:44:06;100749.97;;;7.81;44.63
19736;BME280;32064;49.310;8.646;2023-02-26T11:46:44;100745.16;;;7.90;45.02
19736;BME280;32064;49.310;8.646;2023-02-26T11:49:15;100744.41;;;7.87;45.35
19736;BME280;32064;49.310;8.646;2023-02-26T11:51:42;100740.84;;;7.88;44.83
19736;BME280;32064;49.310;8.646;2023-02-26T11:54:25;100746.31;;;7.84;44.99
19736;BME280;32064;49.310;8.646;2023-02-26T11:56:51;100749.22;;;7.95;45.02
19736;BME280;32064;49.310;8.646;2023-02-26T11:59:24;100738.91;;;7.92;44.68
19736;BME280;32064;49.310;8.646;2023-02-26T12:01:52;100744.84;;;7.96;44.71
19736;BME280;32064;49.310;8.646;2023-02-26T12:04:22;100752.94;;;7.91;44.89
19736;BME280;32064;49.310;8.646;2023-02-26T12:06:51;100747.75;;;7.74;45.14
19736;BME280;32064;49.310;8.646;2023-02-26T12:09:17;100746.47;;;7.65;44.74
19736;BME280;32064;49.310;8.646;2023-02-26T12:12:05;100759.41;;;7.68;44.72
19736;BME280;32064;49.310;8.646;2023-02-26T12:14:51;100748.66;;;7.73;45.16
19736;BME280;32064;49.310;8.646;2023-02-26T12:21:11;100754.50;;;7.78;44.31
19736;BME280;32064;49.310;8.646;2023-02-26T12:26:40;100749.31;;;7.94;44.71
19736;BME280;32064;49.310;8.646;2023-02-26T12:40:31;100747.13;;;8.02;43.91
19736;BME280;32064;49.310;8.646;2023-02-26T12:45:50;100749.84;;;8.16;44.06
19736;BME280;32064;49.310;8.646;2023-02-26T12:48:57;100739.69;;;8.10;43.24
19736;BME280;32064;49.310;8.646;2023-02-26T13:08:02;100755.13;;;8.64;42.07
19736;BME280;32064;49.310;8.646;2023-02-26T13:22:17;100752.97;;;8.23;42.46
19736;BME280;32064;49.310;8.646;2023-02-26T13:27:32;100765.16;;;8.24;42.90
19736;BME280;32064;49.310;8.646;2023-02-26T13:30:09;100763.84;;;8.15;42.37
19736;BME280;32064;49.310;8.646;2023-02-26T13:32:40;100759.81;;;8.25;43.08
19736;BME280;32064;49.310;8.646;2023-02-26T13:35:19;100757.97;;;8.27;42.26
19736;BME280;32064;49.310;8.646;2023-02-26T13:37:48;100768.94;;;8.34;42.54
19736;BME280;32064;49.310;8.646;2023-02-26T13:51:08;100745.63;;;8.14;42.48
19736;BME280;32064;49.310;8.646;2023-02-26T13:56:14;100752.91;;;8.24;42.61
19736;BME280;32064;49.310;8.646;2023-02-26T13:58:42;100740.34;;;8.77;42.81
19736;BME280;32064;49.310;8.646;2023-02-26T14:03:50;100756.13;;;8.61;41.74
19736;BME280;32064;49.310;8.646;2023-02-26T14:08:49;100750.00;;;8.29;41.66
19736;BME280;32064;49.310;8.646;2023-02-26T14:11:44;100763.44;;;8.07;41.68
19736;BME280;32064;49.310;8.646;2023-02-26T14:14:22;100759.78;;;8.09;42.67
19736;BME280;32064;49.310;8.646;2023-02-26T14:19:30;100769.38;;;8.10;42.71
19736;BME280;32064;49.310;8.646;2023-02-26T14:22:18;100776.19;;;7.97;42.86
19736;BME280;32064;49.310;8.646;2023-02-26T14:25:11;100774.66;;;7.93;42.83
19736;BME280;32064;49.310;8.646;2023-02-26T14:27:41;100780.59;;;7.97;43.14
19736;BME280;32064;49.310;8.646;2023-02-26T14:35:11;100788.91;;;7.54;42.50
19736;BME280;32064;49.310;8.646;2023-02-26T14:37:38;100793.84;;;7.43;42.26
19736;BME280;32064;49.310;8.646;2023-02-26T14:42:45;100788.22;;;7.33;42.48
19736;BME280;32064;49.310;8.646;2023-02-26T14:47:42;100805.22;;;7.59;41.70
19736;BME280;32064;49.310;8.646;2023-02-26T14:50:13;100802.06;;;7.70;41.86
19736;BME280;32064;49.310;8.646;2023-02-26T14:55:46;100794.97;;;7.55;41.99
19736;BME280;32064;49.310;8.646;2023-02-26T15:04:50;100807.53;;;7.13;41.87
19736;BME280;32064;49.310;8.646;2023-02-26T15:07:47;100819.53;;;7.17;41.73
19736;BME280;32064;49.310;8.646;2023-02-26T15:16:20;100824.91;;;7.14;42.26
19736;BME280;32064;49.310;8.646;2023-02-26T15:19:03;100829.53;;;7.09;41.79
19736;BME280;32064;49.310;8.646;2023-02-26T15:21:56;100844.75;;;7.01;42.37
19736;BME280;32064;49.310;8.646;2023-02-26T15:24:25;100832.59;;;7.00;42.46
19736;BME280;32064;49.310;8.646;2023-02-26T15:26:54;100840.66;;;6.95;41.52
19736;BME280;32064;49.310;8.646;2023-02-26T15:29:27;100836.34;;;6.94;42.16
19736;BME280;32064;49.310;8.646;2023-02-26T15:31:56;100840.75;;;6.94;41.76
19736;BME280;32064;49.310;8.646;2023-02-26T15:34:25;100837.50;;;6.89;42.00
19736;BME280;32064;49.310;8.646;2023-02-26T15:36:51;100848.50;;;6.95;41.46
19736;BME280;32064;49.310;8.646;2023-02-26T15:39:21;100849.19;;;6.99;42.03
19736;BME280;32064;49.310;8.646;2023-02-26T15:41:48;100845.25;;;6.90;41.07
19736;BME280;32064;49.310;8.646;2023-02-26T15:44:22;100843.63;;;6.88;42.67
19736;BME280;32064;49.310;8.646;2023-02-26T15:46:54;100851.56;;;6.86;41.98
19736;BME280;32064;49.310;8.646;2023-02-26T15:49:27;100858.41;;;6.89;41.68
19736;BME280;32064;49.310;8.646;2023-02-26T15:51:55;100865.91;;;6.96;42.21
19736;BME280;32064;49.310;8.646;2023-02-26T15:54:24;100861.09;;;6.87;41.95
19736;BME280;32064;49.310;8.646;2023-02-26T15:56:53;100855.00;;;6.87;41.90
19736;BME280;32064;49.310;8.646;2023-02-26T15:59:24;100850.63;;;6.87;41.65